createdAt,value
2022-10-13T00:00:47.410Z,8.00
2022-10-13T00:03:14.844Z,8.00
2022-10-13T00:05:43.969Z,8.00
2022-10-13T00:08:11.873Z,8.00
2022-10-13T00:10:40.330Z,8.00
2022-10-13T00:13:08.596Z,8.00
2022-10-13T00:15:43.677Z,8.20
2022-10-13T00:18:10.931Z,8.10
2022-10-13T00:20:49.041Z,8.10
2022-10-13T00:23:17.301Z,8.10
2022-10-13T00:25:46.308Z,8.10
2022-10-13T00:28:14.451Z,8.10
2022-10-13T00:30:42.082Z,8.10
2022-10-13T00:33:10.679Z,8.00
2022-10-13T00:35:48.433Z,8.00
2022-10-13T00:38:19.993Z,8.00
2022-10-13T00:40:56.503Z,8.00
2022-10-13T00:43:25.130Z,8.00
2022-10-13T00:45:52.880Z,8.00
2022-10-13T00:48:28.967Z,8.10
2022-10-13T00:50:58.386Z,8.10
2022-10-13T00:53:31.093Z,8.10
2022-10-13T00:55:58.293Z,8.00
2022-10-13T00:58:31.471Z,8.10
2022-10-13T01:00:59.191Z,8.10
2022-10-13T01:03:26.926Z,8.10
2022-10-13T01:05:58.110Z,8.10
2022-10-13T01:08:27.146Z,8.10
2022-10-13T01:11:19.724Z,8.10
2022-10-13T01:13:58.635Z,8.10
2022-10-13T01:16:31.770Z,8.10
2022-10-13T01:19:25.675Z,8.00
2022-10-13T01:22:18.567Z,8.00
2022-10-13T01:24:56.766Z,8.00
2022-10-13T01:27:38.331Z,7.90
2022-10-13T01:30:08.097Z,7.90
2022-10-13T01:32:58.643Z,7.80
2022-10-13T01:35:25.643Z,7.80
2022-10-13T01:38:08.609Z,7.70
2022-10-13T01:40:45.490Z,7.80
2022-10-13T01:43:20.153Z,7.80
2022-10-13T01:45:56.804Z,7.80
2022-10-13T01:48:25.712Z,7.80
2022-10-13T01:50:53.970Z,7.80
2022-10-13T01:53:21.700Z,7.90
2022-10-13T01:55:51.133Z,8.00
2022-10-13T01:58:18.429Z,8.00
2022-10-13T02:01:00.400Z,7.90
2022-10-13T02:03:44.022Z,8.00
2022-10-13T02:06:21.513Z,7.90
2022-10-13T02:09:15.229Z,7.90
2022-10-13T02:11:51.791Z,7.90
2022-10-13T02:14:24.532Z,8.00
2022-10-13T02:16:53.885Z,8.00
2022-10-13T02:19:23.030Z,8.00
2022-10-13T02:21:50.797Z,8.00
2022-10-13T02:24:17.789Z,7.90
2022-10-13T02:26:45.210Z,7.90
2022-10-13T02:29:16.923Z,7.90
2022-10-13T02:31:45.440Z,7.80
2022-10-13T02:34:13.454Z,8.00
2022-10-13T02:36:41.112Z,8.00
2022-10-13T02:39:09.748Z,7.90
2022-10-13T02:41:36.862Z,7.90
2022-10-13T02:44:04.215Z,7.90
2022-10-13T02:46:31.432Z,7.80
2022-10-13T02:48:58.916Z,7.80
2022-10-13T02:51:26.035Z,7.70
2022-10-13T02:53:53.174Z,7.70
2022-10-13T02:56:20.038Z,7.70
2022-10-13T02:58:47.062Z,7.60
2022-10-13T03:01:15.527Z,7.60
2022-10-13T03:03:44.028Z,7.60
2022-10-13T03:06:11.306Z,7.60
2022-10-13T03:08:38.475Z,7.60
2022-10-13T03:11:06.263Z,7.60
2022-10-13T03:13:33.241Z,7.50
2022-10-13T03:16:00.291Z,7.50
2022-10-13T03:18:27.197Z,7.50
2022-10-13T03:20:59.610Z,7.50
2022-10-13T03:23:27.006Z,7.50
2022-10-13T03:25:54.500Z,7.50
2022-10-13T03:28:22.750Z,7.50
2022-10-13T03:30:49.843Z,7.50
2022-10-13T03:33:17.160Z,7.50
2022-10-13T03:35:44.070Z,7.40
2022-10-13T03:38:11.193Z,7.40
2022-10-13T03:40:38.048Z,7.50
2022-10-13T03:43:05.019Z,7.40
2022-10-13T03:45:32.031Z,7.50
2022-10-13T03:47:58.945Z,7.50
2022-10-13T03:50:26.136Z,7.50
2022-10-13T03:52:53.007Z,7.60
2022-10-13T03:55:19.954Z,7.70
2022-10-13T03:57:46.960Z,7.70
2022-10-13T04:00:15.063Z,7.70
2022-10-13T04:02:42.217Z,7.80
2022-10-13T04:05:09.596Z,7.80
2022-10-13T04:07:37.590Z,7.80
2022-10-13T04:10:06.894Z,7.80
2022-10-13T04:12:37.248Z,7.80
2022-10-13T04:15:04.792Z,7.90
2022-10-13T04:17:31.695Z,7.90
2022-10-13T04:19:58.579Z,7.90
2022-10-13T04:22:25.566Z,7.90
2022-10-13T04:24:52.545Z,7.90
2022-10-13T04:27:23.734Z,7.90
2022-10-13T04:29:50.954Z,7.90
2022-10-13T04:32:18.278Z,8.00
2022-10-13T04:34:45.568Z,8.00
2022-10-13T04:37:13.005Z,8.00
2022-10-13T04:39:40.193Z,8.20
2022-10-13T04:42:07.176Z,8.10
2022-10-13T04:44:36.924Z,8.10
2022-10-13T04:47:04.000Z,8.10
2022-10-13T04:49:30.886Z,8.10
2022-10-13T04:51:57.936Z,8.10
2022-10-13T04:54:24.892Z,8.30
2022-10-13T04:56:51.799Z,8.30
2022-10-13T04:59:18.700Z,8.40
2022-10-13T05:01:45.616Z,8.40
2022-10-13T05:04:12.631Z,8.40
2022-10-13T05:07:05.367Z,8.40
2022-10-13T05:09:29.429Z,8.40
2022-10-13T05:11:56.396Z,8.30
2022-10-13T05:14:23.552Z,8.30
2022-10-13T05:16:50.503Z,8.30
2022-10-13T05:19:17.693Z,8.40
2022-10-13T05:21:44.724Z,8.40
2022-10-13T05:24:14.365Z,8.60
2022-10-13T05:26:41.407Z,8.60
2022-10-13T05:29:08.797Z,8.60
2022-10-13T05:31:36.583Z,8.70
2022-10-13T05:34:06.691Z,8.70
2022-10-13T05:36:35.203Z,8.80
2022-10-13T05:39:05.924Z,8.80
2022-10-13T05:41:32.891Z,8.70
2022-10-13T05:44:03.482Z,8.90
2022-10-13T05:46:30.746Z,8.90
2022-10-13T05:48:58.206Z,9.00
2022-10-13T05:51:29.702Z,8.90
2022-10-13T05:54:08.794Z,8.90
2022-10-13T05:56:43.548Z,9.00
2022-10-13T05:59:13.361Z,9.00
2022-10-13T06:01:42.715Z,9.00
2022-10-13T06:04:14.997Z,9.00
2022-10-13T06:06:41.950Z,9.10
2022-10-13T06:09:12.218Z,9.10
2022-10-13T06:11:39.455Z,9.10
2022-10-13T06:14:08.062Z,9.20
2022-10-13T06:16:37.503Z,9.20
2022-10-13T06:19:06.296Z,9.20
2022-10-13T06:21:35.766Z,9.30
2022-10-13T06:24:03.149Z,9.30
2022-10-13T06:26:30.448Z,9.40
2022-10-13T06:28:59.691Z,9.40
2022-10-13T06:31:27.300Z,9.50
2022-10-13T06:33:54.840Z,9.50
2022-10-13T06:36:23.575Z,9.60
2022-10-13T06:38:53.735Z,9.60
2022-10-13T06:41:20.886Z,9.60
2022-10-13T06:43:48.132Z,9.60
2022-10-13T06:46:15.036Z,9.80
2022-10-13T06:48:42.694Z,9.80
2022-10-13T06:51:11.874Z,9.90
2022-10-13T06:53:38.909Z,9.90
2022-10-13T06:56:10.066Z,10.00
2022-10-13T06:58:38.494Z,10.00
2022-10-13T07:01:06.847Z,10.10
2022-10-13T07:03:34.159Z,10.20
2022-10-13T07:06:05.844Z,10.20
2022-10-13T07:08:34.120Z,10.20
2022-10-13T07:11:11.670Z,10.30
2022-10-13T07:13:46.287Z,10.40
2022-10-13T07:16:14.634Z,10.60
2022-10-13T07:18:41.677Z,10.60
2022-10-13T07:21:08.810Z,10.60
2022-10-13T07:23:36.126Z,10.70
2022-10-13T07:26:08.570Z,10.70
2022-10-13T07:28:37.702Z,10.70
2022-10-13T07:31:14.273Z,10.90
2022-10-13T07:33:44.013Z,10.90
2022-10-13T07:36:12.290Z,10.90
2022-10-13T07:38:39.892Z,11.00
2022-10-13T07:41:09.285Z,11.00
2022-10-13T07:43:36.294Z,11.10
2022-10-13T07:46:07.473Z,11.20
2022-10-13T07:48:38.897Z,11.20
2022-10-13T07:51:07.991Z,11.30
2022-10-13T07:53:35.682Z,11.30
2022-10-13T07:56:05.496Z,11.40
2022-10-13T07:58:33.294Z,11.50
2022-10-13T08:01:02.287Z,11.60
2022-10-13T08:03:29.694Z,11.60
2022-10-13T08:06:01.125Z,11.70
2022-10-13T08:08:29.713Z,11.80
2022-10-13T08:11:05.178Z,11.80
2022-10-13T08:13:32.850Z,11.80
2022-10-13T08:16:06.157Z,11.90
2022-10-13T08:18:33.215Z,12.00
2022-10-13T08:23:50.550Z,12.20
2022-10-13T08:26:22.234Z,12.20
2022-10-13T08:31:40.182Z,12.20
2022-10-13T08:34:07.858Z,12.30
2022-10-13T08:36:35.339Z,12.40
2022-10-13T08:39:02.642Z,12.40
2022-10-13T08:41:40.072Z,12.50
2022-10-13T08:47:19.000Z,12.60
2022-10-13T08:49:46.500Z,12.60
2022-10-13T08:52:29.927Z,12.70
2022-10-13T08:55:11.518Z,12.70
2022-10-13T08:57:57.858Z,12.70
2022-10-13T09:00:24.913Z,12.90
2022-10-13T09:02:52.555Z,13.00
2022-10-13T09:06:02.974Z,13.00
2022-10-13T09:08:38.175Z,13.10
2022-10-13T09:11:10.401Z,13.20
2022-10-13T09:13:37.901Z,13.20
2022-10-13T09:16:05.326Z,13.20
2022-10-13T09:18:33.455Z,13.20
2022-10-13T09:21:23.249Z,13.10
2022-10-13T09:23:52.431Z,13.10
2022-10-13T09:26:25.289Z,13.10
2022-10-13T09:28:53.263Z,13.00
2022-10-13T09:31:32.655Z,13.10
2022-10-13T09:34:13.303Z,13.00
2022-10-13T09:36:55.026Z,12.90
2022-10-13T09:39:22.378Z,12.90
2022-10-13T09:41:49.625Z,12.90
2022-10-13T09:44:18.277Z,12.90
2022-10-13T09:46:52.445Z,12.90
2022-10-13T09:49:27.808Z,13.00
2022-10-13T09:52:09.274Z,13.00
2022-10-13T09:54:42.688Z,12.90
2022-10-13T09:57:39.568Z,13.00
2022-10-13T10:00:24.603Z,12.90
2022-10-13T10:03:19.752Z,12.90
2022-10-13T10:05:51.828Z,13.00
2022-10-13T10:09:04.107Z,12.90
2022-10-13T10:11:42.279Z,12.90
2022-10-13T10:14:26.494Z,12.90
2022-10-13T10:17:03.700Z,13.10
2022-10-13T10:20:18.361Z,13.10
2022-10-13T10:23:16.464Z,13.20
2022-10-13T10:26:06.252Z,13.20
2022-10-13T10:29:05.706Z,13.30
2022-10-13T10:31:44.544Z,13.30
2022-10-13T10:34:27.989Z,13.40
2022-10-13T10:37:06.671Z,13.40
2022-10-13T10:39:55.265Z,13.50
2022-10-13T10:42:58.905Z,13.50
2022-10-13T10:45:28.790Z,13.50
2022-10-13T10:48:00.745Z,13.50
2022-10-13T10:50:30.895Z,13.50
2022-10-13T10:53:03.674Z,13.50
2022-10-13T10:55:54.392Z,13.50
2022-10-13T10:58:27.608Z,13.50
2022-10-13T11:01:19.422Z,13.60
2022-10-13T11:03:52.537Z,13.50
2022-10-13T11:06:27.511Z,13.50
2022-10-13T11:08:55.505Z,13.50
2022-10-13T11:11:29.332Z,13.50
2022-10-13T11:14:01.498Z,13.50
2022-10-13T11:16:30.095Z,13.50
2022-10-13T11:19:36.683Z,13.50
2022-10-13T11:22:03.609Z,13.50
2022-10-13T11:24:39.067Z,13.50
2022-10-13T11:27:11.978Z,13.40
2022-10-13T11:29:49.110Z,13.50
2022-10-13T11:32:30.913Z,13.60
2022-10-13T11:35:05.154Z,13.70
2022-10-13T11:37:35.170Z,13.50
2022-10-13T11:40:05.418Z,13.60
2022-10-13T11:43:15.347Z,13.60
2022-10-13T11:46:26.814Z,13.50
2022-10-13T11:49:21.550Z,13.40
2022-10-13T11:52:12.340Z,13.50
2022-10-13T11:54:50.977Z,13.50
2022-10-13T11:57:19.363Z,13.40
2022-10-13T11:59:48.869Z,13.50
2022-10-13T12:02:19.166Z,13.50
2022-10-13T12:05:28.814Z,13.40
2022-10-13T12:08:01.278Z,13.40
2022-10-13T12:10:36.697Z,13.40
2022-10-13T12:13:05.994Z,13.40
2022-10-13T12:16:17.761Z,13.50
2022-10-13T12:19:23.574Z,13.50
2022-10-13T12:22:22.707Z,13.40
2022-10-13T12:45:43.897Z,13.40
2022-10-13T12:48:53.662Z,13.30
2022-10-13T12:51:45.666Z,13.20
2022-10-13T12:57:50.686Z,13.10
2022-10-13T13:03:58.885Z,13.10
2022-10-13T13:06:35.360Z,13.00
2022-10-13T13:21:17.873Z,13.10
2022-10-13T13:36:34.408Z,13.00
2022-10-13T13:51:52.870Z,12.90
2022-10-13T13:54:51.238Z,12.90
2022-10-13T13:57:48.840Z,12.90
2022-10-13T14:01:02.385Z,12.90
2022-10-13T14:05:17.598Z,12.80
2022-10-13T14:06:56.772Z,12.80
2022-10-13T14:10:03.731Z,12.70
2022-10-13T14:16:23.801Z,12.80
2022-10-13T14:18:58.932Z,12.80
2022-10-13T14:21:44.440Z,12.80
2022-10-13T14:25:18.653Z,12.90
2022-10-13T14:28:00.318Z,12.80
2022-10-13T14:33:26.029Z,12.80
2022-10-13T14:36:21.053Z,12.80
2022-10-13T14:39:48.598Z,12.70
2022-10-13T14:42:13.404Z,12.70
2022-10-13T14:51:27.374Z,12.70
2022-10-13T14:57:06.219Z,12.70
2022-10-13T14:59:48.047Z,12.70
2022-10-13T15:03:04.898Z,12.70
2022-10-13T15:06:40.634Z,12.70
2022-10-13T15:12:32.544Z,12.60
2022-10-13T15:15:12.734Z,12.60
2022-10-13T15:18:09.280Z,12.60
2022-10-13T15:21:43.755Z,12.50
2022-10-13T15:24:56.929Z,12.50
2022-10-13T15:27:35.870Z,12.50
2022-10-13T15:36:49.421Z,12.40
2022-10-13T15:39:43.706Z,12.40
2022-10-13T15:43:08.230Z,12.50
2022-10-13T15:45:32.714Z,12.40
2022-10-13T16:06:13.788Z,12.10
2022-10-13T16:14:10.845Z,12.10
2022-10-13T16:18:29.088Z,12.10
2022-10-13T16:23:48.360Z,12.10
2022-10-13T16:29:20.575Z,12.20
2022-10-13T16:32:08.621Z,12.10
2022-10-13T16:42:31.651Z,12.10
2022-10-13T16:51:56.154Z,12.10
2022-10-13T16:54:41.987Z,12.00
2022-10-13T16:57:59.621Z,11.90
2022-10-13T17:04:27.579Z,11.90
2022-10-13T17:10:50.344Z,11.90
2022-10-13T17:24:35.796Z,11.90
2022-10-13T17:26:28.258Z,11.90
2022-10-13T17:29:06.936Z,11.80
2022-10-13T17:32:23.131Z,11.80
2022-10-13T17:35:21.420Z,11.80
2022-10-13T17:41:05.317Z,11.80
2022-10-13T17:43:49.211Z,11.80
2022-10-13T17:46:43.368Z,11.80
2022-10-13T17:49:46.462Z,11.80
2022-10-13T17:52:30.983Z,11.80
2022-10-13T17:55:53.741Z,11.80
2022-10-13T17:58:38.261Z,11.80
2022-10-13T18:05:08.657Z,11.70
2022-10-13T18:14:37.853Z,11.80
2022-10-13T18:17:44.637Z,11.70
2022-10-13T18:20:26.476Z,11.70
2022-10-13T18:23:29.974Z,11.60
2022-10-13T18:26:39.577Z,11.60
2022-10-13T18:29:35.983Z,11.70
2022-10-13T18:32:14.951Z,11.60
2022-10-13T18:34:44.723Z,11.60
2022-10-13T18:37:50.579Z,11.60
2022-10-13T18:40:36.290Z,11.60
2022-10-13T18:43:35.476Z,11.60
2022-10-13T18:46:43.963Z,11.60
2022-10-13T18:52:46.669Z,11.60
2022-10-13T18:55:36.347Z,11.60
2022-10-13T18:58:11.953Z,11.50
2022-10-13T19:03:39.601Z,11.50
2022-10-13T19:06:11.975Z,11.50
2022-10-13T19:09:00.391Z,11.50
2022-10-13T19:13:13.021Z,11.50
2022-10-13T19:14:47.233Z,11.50
2022-10-13T19:17:28.579Z,11.50
2022-10-13T19:20:31.975Z,11.40
2022-10-13T19:24:23.030Z,11.40
2022-10-13T19:26:04.954Z,11.40
2022-10-13T19:28:35.460Z,11.40
2022-10-13T19:31:33.908Z,11.40
2022-10-13T19:37:44.770Z,11.40
2022-10-13T19:40:17.060Z,11.30
2022-10-13T19:42:54.872Z,11.30
2022-10-13T19:48:37.758Z,11.40
2022-10-13T19:51:34.405Z,11.40
2022-10-13T19:54:27.945Z,11.40
2022-10-13T19:57:07.309Z,11.30
2022-10-13T20:00:07.607Z,11.40
2022-10-13T20:02:34.584Z,11.30
2022-10-13T20:05:01.530Z,11.30
2022-10-13T20:07:28.436Z,11.30
2022-10-13T20:09:58.746Z,11.30
2022-10-13T20:12:26.146Z,11.20
2022-10-13T20:14:53.080Z,11.30
2022-10-13T20:17:20.432Z,11.20
2022-10-13T20:19:47.971Z,11.20
2022-10-13T20:22:15.061Z,11.20
2022-10-13T20:24:42.265Z,11.20
2022-10-13T20:27:09.674Z,11.20
2022-10-13T20:29:36.761Z,11.20
2022-10-13T20:32:04.875Z,11.20
2022-10-13T20:34:31.874Z,11.20
2022-10-13T20:36:58.725Z,11.20
2022-10-13T20:39:25.695Z,11.30
2022-10-13T20:41:52.564Z,11.20
2022-10-13T20:44:19.446Z,11.20
2022-10-13T20:46:46.456Z,11.30
2022-10-13T20:49:13.744Z,11.20
2022-10-13T20:51:42.678Z,11.20
2022-10-13T20:54:11.539Z,11.20
2022-10-13T20:56:38.837Z,11.20
2022-10-13T20:59:08.971Z,11.20
2022-10-13T21:01:37.136Z,11.30
2022-10-13T21:04:04.611Z,11.30
2022-10-13T21:06:31.975Z,11.30
2022-10-13T21:08:58.991Z,11.30
2022-10-13T21:11:25.977Z,11.20
2022-10-13T21:13:53.430Z,11.20
2022-10-13T21:16:23.352Z,11.20
2022-10-13T21:18:52.026Z,11.30
2022-10-13T21:21:21.609Z,11.30
2022-10-13T21:24:00.412Z,11.30
2022-10-13T21:26:29.687Z,11.30
2022-10-13T21:28:57.093Z,11.30
2022-10-13T21:31:26.340Z,11.30
2022-10-13T21:33:53.997Z,11.30
2022-10-13T21:36:29.415Z,11.30
2022-10-13T21:38:59.028Z,11.20
2022-10-13T21:41:27.102Z,11.20
2022-10-13T21:43:54.722Z,11.20
2022-10-13T21:46:25.171Z,11.20
2022-10-13T21:48:54.348Z,11.20
2022-10-13T21:51:32.982Z,11.20
2022-10-13T21:54:12.114Z,11.20
2022-10-13T21:56:40.256Z,11.20
2022-10-13T21:59:07.848Z,11.20
2022-10-13T22:01:35.312Z,11.20
2022-10-13T22:04:03.060Z,11.20
2022-10-13T22:06:32.877Z,11.20
2022-10-13T22:09:01.852Z,11.30
2022-10-13T22:11:31.533Z,11.30
2022-10-13T22:13:58.943Z,11.30
2022-10-13T22:16:28.992Z,11.30
2022-10-13T22:18:57.220Z,11.30
2022-10-13T22:21:27.855Z,11.30
2022-10-13T22:24:00.545Z,11.20
2022-10-13T22:26:30.347Z,11.10
2022-10-13T22:29:02.147Z,11.10
2022-10-13T22:31:29.569Z,11.10
2022-10-13T22:33:56.945Z,11.10
2022-10-13T22:36:25.503Z,11.10
2022-10-13T22:38:54.798Z,11.10
2022-10-13T22:41:22.164Z,11.00
2022-10-13T22:43:54.011Z,11.00
2022-10-13T22:46:23.169Z,10.90
2022-10-13T22:48:50.678Z,10.90
2022-10-13T22:51:19.937Z,10.80
2022-10-13T22:53:47.947Z,10.80
2022-10-13T22:56:21.143Z,10.70
2022-10-13T22:59:08.277Z,10.80
2022-10-13T23:01:36.057Z,10.80
2022-10-13T23:04:03.678Z,10.80
2022-10-13T23:06:32.869Z,10.70
2022-10-13T23:09:05.327Z,10.80
2022-10-13T23:11:32.984Z,10.60
2022-10-13T23:14:01.634Z,10.70
2022-10-13T23:16:29.265Z,10.80
2022-10-13T23:18:59.990Z,10.70
2022-10-13T23:21:29.060Z,10.60
2022-10-13T23:24:01.909Z,10.60
2022-10-13T23:26:29.838Z,10.60
2022-10-13T23:28:57.850Z,10.60
2022-10-13T23:31:26.297Z,10.60
2022-10-13T23:33:53.331Z,10.60
2022-10-13T23:36:22.780Z,10.50
2022-10-13T23:38:55.059Z,10.50
2022-10-13T23:41:22.253Z,10.50
2022-10-13T23:43:49.156Z,10.40
2022-10-13T23:46:16.174Z,10.40
2022-10-13T23:48:43.792Z,10.40
2022-10-13T23:51:17.110Z,10.40
2022-10-13T23:53:44.876Z,10.40
2022-10-13T23:56:13.115Z,10.40
2022-10-13T23:58:42.448Z,10.50
